createdAt,value
2022-10-30T00:00:11.874Z,17.61
2022-10-30T00:03:05.758Z,17.61
2022-10-30T00:05:41.613Z,17.58
2022-10-30T00:08:15.674Z,17.57
2022-10-30T00:10:50.508Z,17.58
2022-10-30T00:13:23.361Z,17.53
2022-10-30T00:15:57.411Z,17.52
2022-10-30T00:18:30.505Z,17.51
2022-10-30T00:21:07.827Z,17.50
2022-10-30T00:23:41.016Z,17.50
2022-10-30T00:26:15.241Z,17.51
2022-10-30T00:28:50.732Z,17.46
2022-10-30T00:31:25.882Z,17.41
2022-10-30T00:33:59.038Z,17.24
2022-10-30T00:36:33.331Z,17.19
2022-10-30T00:39:06.527Z,17.21
2022-10-30T00:41:41.848Z,17.37
2022-10-30T00:44:40.505Z,17.42
2022-10-30T00:47:18.136Z,17.42
2022-10-30T00:49:55.392Z,17.41
2022-10-30T00:52:29.658Z,17.36
2022-10-30T00:55:04.131Z,17.21
2022-10-30T00:57:36.911Z,17.37
2022-10-30T01:00:14.083Z,17.44
2022-10-30T01:02:47.781Z,17.45
2022-10-30T01:05:21.868Z,17.49
2022-10-30T01:07:53.993Z,17.50
2022-10-30T01:10:28.044Z,17.49
2022-10-30T01:13:05.933Z,17.45
2022-10-30T01:15:41.855Z,17.36
2022-10-30T01:18:24.386Z,17.29
2022-10-30T01:21:16.552Z,17.21
2022-10-30T01:24:02.365Z,17.18
2022-10-30T01:26:43.490Z,17.18
2022-10-30T01:29:28.254Z,17.18
2022-10-30T01:32:15.010Z,17.12
2022-10-30T01:34:51.613Z,17.10
2022-10-30T01:37:29.996Z,17.08
2022-10-30T01:40:07.952Z,17.10
2022-10-30T01:42:56.798Z,17.13
2022-10-30T01:45:46.990Z,17.13
2022-10-30T01:48:34.496Z,17.11
2022-10-30T01:51:13.214Z,17.10
2022-10-30T01:53:54.324Z,17.07
2022-10-30T01:56:33.609Z,17.01
2022-10-30T01:59:13.423Z,16.97
2022-10-30T02:01:48.088Z,16.93
2022-10-30T02:04:20.710Z,16.92
2022-10-30T02:06:53.757Z,16.91
2022-10-30T02:09:26.702Z,16.86
2022-10-30T02:12:01.215Z,16.82
2022-10-30T02:14:36.113Z,16.80
2022-10-30T02:17:10.073Z,16.74
2022-10-30T02:19:42.886Z,16.73
2022-10-30T02:22:16.886Z,16.69
2022-10-30T02:24:50.414Z,16.67
2022-10-30T02:27:26.955Z,16.68
2022-10-30T02:30:01.448Z,16.69
2022-10-30T02:32:35.880Z,16.71
2022-10-30T02:35:11.266Z,16.73
2022-10-30T02:37:43.190Z,16.78
2022-10-30T02:40:17.295Z,16.81
2022-10-30T02:42:55.004Z,16.81
2022-10-30T02:45:27.444Z,16.85
2022-10-30T02:48:06.133Z,16.89
2022-10-30T02:50:40.841Z,16.94
2022-10-30T02:53:12.654Z,17.01
2022-10-30T02:55:45.375Z,17.08
2022-10-30T02:58:19.887Z,17.16
2022-10-30T03:00:51.791Z,17.23
2022-10-30T03:03:24.266Z,17.27
2022-10-30T03:05:57.279Z,17.32
2022-10-30T03:08:30.383Z,17.36
2022-10-30T03:11:07.785Z,17.40
2022-10-30T03:13:42.754Z,17.43
2022-10-30T03:16:16.864Z,17.47
2022-10-30T03:18:52.116Z,17.52
2022-10-30T03:21:26.247Z,17.55
2022-10-30T03:23:59.350Z,17.58
2022-10-30T03:26:33.303Z,17.60
2022-10-30T03:29:05.529Z,17.59
2022-10-30T03:31:38.465Z,17.66
2022-10-30T03:34:12.603Z,17.65
2022-10-30T03:36:45.406Z,17.47
2022-10-30T03:39:18.631Z,17.43
2022-10-30T03:41:53.790Z,17.46
2022-10-30T03:44:27.564Z,17.49
2022-10-30T03:47:00.422Z,17.65
2022-10-30T03:49:34.060Z,17.67
2022-10-30T03:52:07.462Z,17.62
2022-10-30T03:54:41.986Z,17.68
2022-10-30T03:57:14.661Z,17.66
2022-10-30T03:59:48.069Z,17.63
2022-10-30T04:04:59.540Z,17.65
2022-10-30T04:07:34.059Z,17.67
2022-10-30T04:10:09.981Z,17.72
2022-10-30T04:12:44.145Z,17.74
2022-10-30T04:15:16.472Z,17.75
2022-10-30T04:17:53.119Z,17.63
2022-10-30T04:20:29.077Z,17.64
2022-10-30T04:23:02.935Z,17.74
2022-10-30T04:25:37.753Z,17.76
2022-10-30T04:28:10.001Z,17.78
2022-10-30T04:30:44.703Z,17.80
2022-10-30T04:33:17.712Z,17.76
2022-10-30T04:35:50.265Z,17.76
2022-10-30T04:38:23.035Z,17.82
2022-10-30T04:40:56.000Z,17.85
2022-10-30T04:43:29.234Z,17.81
2022-10-30T04:46:05.470Z,17.78
2022-10-30T04:48:37.725Z,17.78
2022-10-30T04:51:11.887Z,17.72
2022-10-30T04:53:48.542Z,17.56
2022-10-30T04:56:21.762Z,17.61
2022-10-30T04:58:57.999Z,17.53
2022-10-30T05:01:34.014Z,17.62
2022-10-30T05:04:09.936Z,17.72
2022-10-30T05:06:42.392Z,17.77
2022-10-30T05:09:16.169Z,17.78
2022-10-30T05:11:57.443Z,17.77
2022-10-30T05:14:34.998Z,17.77
2022-10-30T05:17:07.441Z,17.74
2022-10-30T05:19:41.219Z,17.75
2022-10-30T05:22:15.053Z,17.72
2022-10-30T05:24:48.336Z,17.70
2022-10-30T05:27:20.347Z,17.72
2022-10-30T05:29:53.123Z,17.79
2022-10-30T05:32:25.649Z,17.80
2022-10-30T05:35:01.107Z,17.78
2022-10-30T05:37:34.467Z,17.74
2022-10-30T05:40:09.258Z,17.73
2022-10-30T05:42:41.159Z,17.68
2022-10-30T05:45:15.499Z,17.53
2022-10-30T05:47:50.551Z,17.72
2022-10-30T05:50:22.788Z,17.58
2022-10-30T05:52:59.749Z,17.51
2022-10-30T05:55:33.404Z,17.57
2022-10-30T05:58:08.945Z,17.70
2022-10-30T06:00:43.077Z,17.82
2022-10-30T06:03:17.064Z,17.83
2022-10-30T06:05:52.029Z,17.84
2022-10-30T06:08:23.804Z,17.85
2022-10-30T06:10:58.697Z,17.87
2022-10-30T06:13:33.124Z,17.90
2022-10-30T06:16:08.818Z,17.92
2022-10-30T06:18:40.596Z,17.81
2022-10-30T06:21:13.685Z,17.76
2022-10-30T06:23:51.810Z,17.93
2022-10-30T06:26:26.243Z,18.00
2022-10-30T06:29:01.405Z,17.87
2022-10-30T06:31:35.089Z,17.84
2022-10-30T06:34:07.722Z,17.91
2022-10-30T06:36:41.005Z,18.12
2022-10-30T06:39:13.215Z,18.18
2022-10-30T06:41:46.852Z,18.22
2022-10-30T06:44:20.827Z,18.26
2022-10-30T06:46:57.491Z,18.27
2022-10-30T06:49:32.064Z,18.29
2022-10-30T06:52:05.759Z,18.33
2022-10-30T06:54:39.430Z,18.36
2022-10-30T06:57:17.738Z,18.37
2022-10-30T06:59:49.693Z,18.41
2022-10-30T07:02:25.855Z,18.48
2022-10-30T07:04:58.474Z,18.55
2022-10-30T07:07:31.317Z,18.59
2022-10-30T07:10:06.314Z,18.61
2022-10-30T07:12:38.759Z,18.65
2022-10-30T07:15:14.745Z,18.72
2022-10-30T07:17:55.978Z,18.77
2022-10-30T07:20:29.843Z,18.86
2022-10-30T07:23:07.658Z,18.94
2022-10-30T07:25:40.214Z,19.00
2022-10-30T07:28:12.127Z,18.88
2022-10-30T07:30:44.889Z,18.85
2022-10-30T07:33:19.736Z,19.01
2022-10-30T07:35:56.547Z,19.27
2022-10-30T07:38:30.211Z,19.35
2022-10-30T07:41:03.921Z,19.36
2022-10-30T07:43:38.012Z,19.18
2022-10-30T07:46:09.895Z,19.16
2022-10-30T07:48:47.532Z,19.20
2022-10-30T07:51:21.426Z,19.31
2022-10-30T07:53:56.036Z,19.56
2022-10-30T07:56:56.305Z,19.70
2022-10-30T07:59:30.910Z,19.70
2022-10-30T08:02:39.104Z,19.89
2022-10-30T08:05:48.282Z,20.12
2022-10-30T08:08:47.334Z,20.21
2022-10-30T08:11:32.133Z,20.35
2022-10-30T08:14:37.537Z,20.42
2022-10-30T08:17:17.509Z,20.43
2022-10-30T08:19:58.344Z,20.39
2022-10-30T08:22:59.640Z,20.35
2022-10-30T08:25:36.719Z,20.39
2022-10-30T08:28:11.937Z,20.46
2022-10-30T08:38:06.213Z,20.62
2022-10-30T08:40:40.932Z,20.56
2022-10-30T08:43:15.042Z,20.61
2022-10-30T08:45:47.975Z,20.68
2022-10-30T08:48:21.216Z,20.69
2022-10-30T08:50:57.050Z,20.70
2022-10-30T08:53:29.969Z,20.83
2022-10-30T08:56:05.884Z,20.90
2022-10-30T08:58:39.586Z,21.06
2022-10-30T09:01:14.474Z,21.17
2022-10-30T09:03:48.571Z,21.21
2022-10-30T09:06:21.925Z,21.30
2022-10-30T09:08:54.357Z,21.34
2022-10-30T09:11:27.388Z,21.43
2022-10-30T09:14:02.510Z,21.52
2022-10-30T09:16:37.285Z,21.59
2022-10-30T09:19:09.141Z,21.64
2022-10-30T09:21:42.974Z,21.74
2022-10-30T09:24:16.825Z,21.81
2022-10-30T09:26:53.537Z,21.89
2022-10-30T09:29:56.557Z,21.96
2022-10-30T09:33:22.425Z,22.06
2022-10-30T09:36:23.729Z,22.18
2022-10-30T09:39:01.088Z,22.31
2022-10-30T09:42:47.503Z,22.48
2022-10-30T09:45:30.914Z,22.68
2022-10-30T09:48:20.731Z,22.81
2022-10-30T09:50:59.497Z,23.01
2022-10-30T09:53:35.369Z,23.12
2022-10-30T09:56:11.552Z,23.20
2022-10-30T09:58:49.712Z,23.28
2022-10-30T10:01:27.666Z,23.41
2022-10-30T10:04:07.213Z,23.57
2022-10-30T10:06:45.345Z,23.58
2022-10-30T10:09:23.734Z,23.52
2022-10-30T10:11:59.520Z,23.59
2022-10-30T10:14:34.175Z,23.67
2022-10-30T10:17:11.821Z,23.79
2022-10-30T10:19:55.490Z,23.96
2022-10-30T10:22:39.083Z,24.28
2022-10-30T10:25:16.030Z,24.36
2022-10-30T10:27:57.762Z,24.40
2022-10-30T10:30:35.593Z,24.51
2022-10-30T10:33:30.147Z,24.84
2022-10-30T10:36:11.512Z,25.09
2022-10-30T10:39:07.645Z,25.18
2022-10-30T10:41:55.928Z,25.53
2022-10-30T10:44:36.659Z,25.82
2022-10-30T10:47:32.438Z,26.03
2022-10-30T10:50:18.699Z,26.37
2022-10-30T10:52:54.926Z,26.67
2022-10-30T10:55:30.458Z,26.88
2022-10-30T10:58:11.689Z,27.09
2022-10-30T11:00:45.663Z,27.25
2022-10-30T11:03:26.292Z,27.43
2022-10-30T11:06:00.992Z,27.58
2022-10-30T11:08:35.470Z,27.66
2022-10-30T11:11:10.859Z,27.72
2022-10-30T11:13:46.869Z,27.80
2022-10-30T11:16:26.865Z,27.85
2022-10-30T11:19:01.587Z,27.81
2022-10-30T11:21:36.532Z,27.83
2022-10-30T11:24:29.466Z,27.83
2022-10-30T11:27:26.042Z,27.82
2022-10-30T11:30:05.773Z,27.92
2022-10-30T11:32:39.891Z,27.94
2022-10-30T11:35:18.917Z,27.98
2022-10-30T11:37:52.810Z,28.04
2022-10-30T11:40:27.008Z,28.12
2022-10-30T11:43:01.575Z,28.17
2022-10-30T11:45:43.290Z,28.23
2022-10-30T11:48:24.332Z,28.32
2022-10-30T11:51:01.591Z,28.47
2022-10-30T11:53:40.110Z,28.53
2022-10-30T11:56:18.334Z,28.64
2022-10-30T11:58:53.309Z,28.78
2022-10-30T12:01:28.558Z,28.93
2022-10-30T12:04:17.452Z,29.06
2022-10-30T12:06:54.965Z,29.16
2022-10-30T12:09:31.120Z,29.24
2022-10-30T12:12:06.757Z,29.49
2022-10-30T12:14:39.508Z,29.70
2022-10-30T12:17:11.537Z,29.97
2022-10-30T12:19:50.405Z,30.19
2022-10-30T12:22:31.922Z,30.36
2022-10-30T12:25:07.997Z,30.26
2022-10-30T12:27:40.759Z,30.05
2022-10-30T12:30:20.443Z,30.12
2022-10-30T12:32:57.571Z,30.32
2022-10-30T12:35:41.156Z,30.49
2022-10-30T12:38:18.425Z,30.69
2022-10-30T12:41:02.027Z,30.89
2022-10-30T12:43:36.602Z,31.08
2022-10-30T12:46:23.812Z,31.19
2022-10-30T12:48:59.812Z,31.34
2022-10-30T12:51:36.742Z,31.48
2022-10-30T12:54:17.259Z,31.59
2022-10-30T12:56:57.077Z,31.67
2022-10-30T12:59:42.673Z,31.71
2022-10-30T13:02:20.006Z,31.69
2022-10-30T13:04:57.959Z,31.75
2022-10-30T13:07:35.121Z,31.85
2022-10-30T13:10:18.220Z,31.87
2022-10-30T13:12:58.020Z,31.90
2022-10-30T13:15:34.979Z,31.87
2022-10-30T13:18:19.530Z,31.72
2022-10-30T13:21:03.869Z,31.54
2022-10-30T13:23:44.485Z,31.32
2022-10-30T13:26:23.149Z,31.03
2022-10-30T13:29:00.636Z,30.77
2022-10-30T13:31:38.985Z,30.63
2022-10-30T13:34:27.942Z,30.56
2022-10-30T13:37:07.119Z,30.45
2022-10-30T13:39:43.329Z,30.29
2022-10-30T13:42:26.839Z,30.11
2022-10-30T13:45:06.307Z,29.92
2022-10-30T13:47:50.444Z,29.76
2022-10-30T13:50:33.688Z,29.62
2022-10-30T13:53:08.582Z,29.45
2022-10-30T13:55:43.336Z,29.28
2022-10-30T13:58:24.728Z,29.18
2022-10-30T14:01:04.758Z,29.10
2022-10-30T14:03:50.117Z,29.04
2022-10-30T14:06:30.300Z,28.99
2022-10-30T14:09:12.176Z,28.92
2022-10-30T14:11:44.237Z,28.88
2022-10-30T14:14:33.185Z,28.81
2022-10-30T14:17:13.998Z,28.66
2022-10-30T14:20:20.617Z,28.57
2022-10-30T14:23:16.192Z,28.48
2022-10-30T14:25:49.092Z,28.39
2022-10-30T14:28:26.043Z,28.31
2022-10-30T14:31:07.320Z,28.21
2022-10-30T14:33:50.854Z,28.08
2022-10-30T14:36:25.151Z,27.97
2022-10-30T14:39:24.658Z,27.84
2022-10-30T14:42:04.052Z,27.71
2022-10-30T14:45:02.663Z,27.62
2022-10-30T14:47:53.300Z,27.53
2022-10-30T14:50:48.560Z,27.43
2022-10-30T14:53:31.621Z,27.30
2022-10-30T14:56:10.668Z,27.15
2022-10-30T14:58:47.656Z,27.01
2022-10-30T15:01:37.911Z,26.89
2022-10-30T15:04:22.749Z,26.78
2022-10-30T15:06:59.462Z,26.65
2022-10-30T15:09:45.354Z,26.58
2022-10-30T15:12:36.666Z,26.22
2022-10-30T15:15:16.536Z,26.01
2022-10-30T15:17:50.657Z,25.88
2022-10-30T15:20:24.839Z,25.78
2022-10-30T15:23:01.239Z,25.66
2022-10-30T15:25:37.049Z,25.50
2022-10-30T15:28:14.456Z,25.35
2022-10-30T15:31:03.692Z,25.24
2022-10-30T15:33:39.504Z,25.08
2022-10-30T15:36:20.614Z,24.94
2022-10-30T15:39:12.728Z,24.86
2022-10-30T15:41:55.760Z,24.73
2022-10-30T15:44:31.241Z,24.61
2022-10-30T15:47:05.485Z,24.52
2022-10-30T15:49:39.201Z,24.53
2022-10-30T15:52:19.178Z,24.24
2022-10-30T15:54:55.563Z,24.01
2022-10-30T15:58:01.142Z,23.85
2022-10-30T16:00:25.441Z,23.76
2022-10-30T16:03:07.174Z,23.65
2022-10-30T16:05:38.991Z,23.52
2022-10-30T16:08:17.604Z,23.40
2022-10-30T16:10:51.027Z,23.30
2022-10-30T16:13:26.675Z,23.32
2022-10-30T16:15:59.759Z,23.38
2022-10-30T16:18:37.186Z,23.35
2022-10-30T16:21:14.130Z,23.33
2022-10-30T16:23:51.432Z,23.26
2022-10-30T16:26:33.744Z,23.19
2022-10-30T16:29:17.107Z,23.13
2022-10-30T16:31:52.262Z,23.09
2022-10-30T16:34:32.339Z,23.07
2022-10-30T16:37:05.114Z,23.01
2022-10-30T16:39:38.430Z,22.99
2022-10-30T16:42:22.314Z,22.95
2022-10-30T16:44:59.351Z,22.89
2022-10-30T16:47:35.121Z,22.85
2022-10-30T16:50:12.016Z,22.78
2022-10-30T16:52:46.891Z,22.53
2022-10-30T16:55:23.182Z,22.39
2022-10-30T16:57:58.351Z,22.45
2022-10-30T17:00:36.865Z,22.47
2022-10-30T17:03:12.596Z,22.45
2022-10-30T17:05:47.545Z,22.40
2022-10-30T17:08:36.903Z,22.34
2022-10-30T17:11:17.334Z,22.27
2022-10-30T17:14:04.772Z,22.16
2022-10-30T17:16:38.685Z,22.12
2022-10-30T17:19:48.469Z,22.07
2022-10-30T17:22:23.225Z,22.01
2022-10-30T17:24:57.881Z,21.92
2022-10-30T17:27:46.580Z,21.89
2022-10-30T17:30:39.093Z,21.85
2022-10-30T17:33:33.317Z,21.78
2022-10-30T17:36:09.875Z,21.72
2022-10-30T17:38:42.120Z,21.68
2022-10-30T17:41:16.891Z,21.63
2022-10-30T17:43:53.141Z,21.55
2022-10-30T17:46:26.637Z,21.49
2022-10-30T17:49:05.532Z,21.44
2022-10-30T17:51:40.861Z,21.37
2022-10-30T17:54:17.958Z,21.29
2022-10-30T17:56:52.626Z,21.21
2022-10-30T17:59:27.830Z,21.15
2022-10-30T18:02:02.217Z,21.11
2022-10-30T18:04:35.031Z,20.99
2022-10-30T18:07:08.430Z,20.94
2022-10-30T18:09:41.036Z,20.86
2022-10-30T18:12:16.722Z,20.83
2022-10-30T18:14:48.942Z,20.77
2022-10-30T18:17:22.931Z,20.71
2022-10-30T18:19:55.333Z,20.65
2022-10-30T18:22:28.498Z,20.61
2022-10-30T18:25:02.448Z,20.57
2022-10-30T18:27:35.192Z,20.53
2022-10-30T18:30:10.102Z,20.49
2022-10-30T18:32:42.953Z,20.42
2022-10-30T18:35:27.190Z,20.12
2022-10-30T18:38:02.564Z,20.06
2022-10-30T18:40:35.770Z,19.92
2022-10-30T18:43:12.781Z,19.99
2022-10-30T18:45:44.863Z,20.03
2022-10-30T18:48:20.316Z,19.99
2022-10-30T18:50:53.983Z,19.96
2022-10-30T18:53:34.997Z,19.92
2022-10-30T18:56:12.793Z,19.86
2022-10-30T18:58:44.733Z,19.80
2022-10-30T19:01:19.044Z,19.74
2022-10-30T19:03:51.741Z,19.69
2022-10-30T19:06:26.946Z,19.64
2022-10-30T19:09:01.201Z,19.57
2022-10-30T19:11:33.263Z,19.52
2022-10-30T19:14:06.930Z,19.48
2022-10-30T19:16:39.497Z,19.46
2022-10-30T19:19:15.241Z,19.41
2022-10-30T19:21:50.151Z,19.39
2022-10-30T19:24:23.319Z,19.34
2022-10-30T19:26:57.886Z,19.28
2022-10-30T19:29:31.621Z,19.04
2022-10-30T19:32:04.334Z,18.91
2022-10-30T19:34:45.998Z,18.81
2022-10-30T19:37:19.746Z,18.70
2022-10-30T19:39:51.975Z,18.72
2022-10-30T19:42:24.201Z,18.88
2022-10-30T19:44:56.717Z,18.88
2022-10-30T19:47:30.000Z,18.84
2022-10-30T19:50:02.390Z,18.78
2022-10-30T19:52:35.041Z,18.73
2022-10-30T19:55:09.777Z,18.69
2022-10-30T19:57:42.372Z,18.66
2022-10-30T20:00:19.969Z,18.61
2022-10-30T20:02:53.486Z,18.57
2022-10-30T20:05:28.613Z,18.55
2022-10-30T20:08:03.847Z,18.50
2022-10-30T20:10:39.070Z,18.47
2022-10-30T20:13:15.776Z,18.45
2022-10-30T20:15:47.835Z,18.38
2022-10-30T20:18:30.530Z,18.34
2022-10-30T20:21:07.472Z,18.24
2022-10-30T20:23:42.435Z,18.16
2022-10-30T20:26:23.649Z,18.09
2022-10-30T20:28:56.831Z,18.07
2022-10-30T20:31:29.501Z,18.09
2022-10-30T20:34:03.897Z,18.12
2022-10-30T20:36:40.810Z,18.11
2022-10-30T20:39:14.508Z,18.07
2022-10-30T20:41:47.257Z,18.03
2022-10-30T20:44:19.673Z,18.03
2022-10-30T20:46:55.352Z,18.01
2022-10-30T20:49:28.558Z,18.00
2022-10-30T20:52:02.720Z,17.98
2022-10-30T20:54:35.888Z,17.93
2022-10-30T20:57:09.924Z,17.90
2022-10-30T20:59:44.240Z,17.88
2022-10-30T21:02:19.739Z,17.87
2022-10-30T21:04:52.292Z,17.84
2022-10-30T21:07:26.889Z,17.83
2022-10-30T21:09:58.693Z,17.78
2022-10-30T21:12:35.422Z,17.74
2022-10-30T21:15:09.747Z,17.69
2022-10-30T21:17:42.765Z,17.67
2022-10-30T21:20:15.617Z,17.68
2022-10-30T21:22:48.345Z,17.68
2022-10-30T21:25:21.508Z,17.66
2022-10-30T21:27:53.335Z,17.58
2022-10-30T21:30:27.733Z,17.52
2022-10-30T21:33:04.211Z,17.45
2022-10-30T21:35:37.649Z,17.42
2022-10-30T21:38:11.489Z,17.41
2022-10-30T21:40:48.656Z,17.40
2022-10-30T21:43:23.247Z,17.39
2022-10-30T21:45:57.714Z,17.36
2022-10-30T21:48:30.350Z,17.35
2022-10-30T21:51:10.901Z,17.34
2022-10-30T21:53:46.912Z,17.34
2022-10-30T21:56:21.471Z,17.34
2022-10-30T21:58:59.656Z,17.32
2022-10-30T22:01:34.993Z,17.30
2022-10-30T22:04:20.094Z,17.27
2022-10-30T22:06:56.517Z,17.22
2022-10-30T22:09:31.241Z,17.22
2022-10-30T22:12:05.121Z,17.19
2022-10-30T22:14:38.741Z,17.17
2022-10-30T22:17:11.117Z,17.15
2022-10-30T22:19:46.361Z,17.13
2022-10-30T22:22:21.685Z,17.12
2022-10-30T22:24:54.455Z,17.10
2022-10-30T22:27:26.861Z,17.07
2022-10-30T22:30:01.050Z,16.85
2022-10-30T22:32:33.581Z,16.78
2022-10-30T22:35:11.279Z,16.74
2022-10-30T22:37:43.799Z,16.70
2022-10-30T22:40:18.222Z,16.69
2022-10-30T22:42:50.817Z,16.67
2022-10-30T22:45:25.242Z,16.67
2022-10-30T22:47:58.582Z,16.80
2022-10-30T22:50:30.983Z,16.73
2022-10-30T22:53:05.157Z,16.89
2022-10-30T22:55:38.692Z,16.92
2022-10-30T22:58:11.111Z,16.77
2022-10-30T23:00:48.785Z,16.74
2022-10-30T23:03:20.730Z,16.91
2022-10-30T23:05:59.750Z,16.83
2022-10-30T23:08:33.925Z,16.79
2022-10-30T23:11:09.719Z,16.79
2022-10-30T23:13:45.502Z,16.93
2022-10-30T23:16:18.868Z,17.05
2022-10-30T23:18:53.144Z,17.05
2022-10-30T23:21:27.196Z,17.04
2022-10-30T23:24:02.970Z,17.05
2022-10-30T23:26:37.936Z,17.09
2022-10-30T23:29:10.684Z,17.10
2022-10-30T23:31:46.382Z,17.10
2022-10-30T23:34:19.585Z,17.08
2022-10-30T23:36:56.375Z,17.05
2022-10-30T23:39:34.918Z,17.05
2022-10-30T23:42:09.362Z,17.01
2022-10-30T23:44:42.078Z,16.97
2022-10-30T23:47:14.050Z,16.93
2022-10-30T23:49:48.119Z,16.86
2022-10-30T23:52:22.589Z,16.87
2022-10-30T23:54:57.924Z,16.83
2022-10-30T23:57:33.263Z,16.82
